»·PEaware :: DAL143 KLAS-KONT

DAL143 :: KLAS-KONT

FLIGHT INFORMATION

Flight Status: Arrived
Operator:
Delta Air Lines
More flights by this operator :: More flights under this callsign
Pilot: Anonymous 16492 (16492)
Aircraft: BOEING 737-200
(B732)
More flights by this aircraft type
Origin: KLAS McCarran Intl
United States
Destination: KONT Ontario Intl
United States
More flights between these airports :: More routes between these airports
Route: BOACH8 WHIGG FEYLA JCKIE1
File this flight plan on PilotEdge
Remarks:
Altitude:
(Current/Filed)
24,000ft
Speed:
(Current/Filed)
440kts
Departed: 17-Jul-18 06:24 PM
Arrived: 17-Jul-18 07:05 PM
Distance/Time
Traveled:
171nm/0:40
Distance/Time
To Go:
Arrived

Flight Plot

Page will automatically refresh every two minutes.

Flight plan parsing failed; only flown route is shown


Map Options




Map Legend


Flown Route
Filed Route
Departure Airport
Arrival Airport
Navaid (VOR, NDB)
Fix

Horizontal Profiles

Position Reports

Time Latitude Longitude Heading Altitude Ground
Speed
17-Jul-18 18:04 36.079996 -115.135653 22 2190ft 0kts
17-Jul-18 18:05 36.079996 -115.135653 22 2190ft 0kts
17-Jul-18 18:06 36.079996 -115.135653 22 2190ft 0kts
17-Jul-18 18:07 36.079996 -115.135653 22 2190ft 0kts
17-Jul-18 18:08 36.079996 -115.135653 22 2190ft 0kts
17-Jul-18 18:09 36.079996 -115.135653 22 2190ft 0kts
17-Jul-18 18:10 36.079996 -115.135653 22 2190ft 0kts
17-Jul-18 18:11 36.079996 -115.135653 22 2190ft 0kts
17-Jul-18 18:12 36.079996 -115.135653 22 2190ft 0kts
17-Jul-18 18:13 36.079996 -115.135653 22 2190ft 0kts
17-Jul-18 18:14 36.079996 -115.135653 22 2190ft 0kts
17-Jul-18 18:15 36.079996 -115.135653 22 2190ft 0kts
17-Jul-18 18:16 36.079996 -115.135653 22 2190ft 0kts
17-Jul-18 18:17 36.079996 -115.135653 22 2190ft 0kts
17-Jul-18 18:18 36.079996 -115.135653 22 2190ft 0kts
17-Jul-18 18:19 36.079846 -115.135463 170 2190ft 0kts
17-Jul-18 18:20 36.078279 -115.132351 89 2190ft 30kts
17-Jul-18 18:21 36.077359 -115.121367 142 2190ft 0kts
17-Jul-18 18:22 36.077359 -115.121367 142 2190ft 0kts
17-Jul-18 18:23 36.077359 -115.121367 142 2190ft 0kts
17-Jul-18 18:24 36.076612 -115.121257 211 2190ft 15kts
17-Jul-18 18:25 36.076432 -115.127677 269 2190ft 91kts
17-Jul-18 18:26 36.077735 -115.186295 266 3331ft 205kts
17-Jul-18 18:27 36.061465 -115.253780 205 5774ft 226kts
17-Jul-18 18:28 35.999606 -115.286974 200 8639ft 261kts
17-Jul-18 18:29 35.928618 -115.305793 184 11875ft 268kts
17-Jul-18 18:30 35.855471 -115.313731 175 14901ft 267kts
17-Jul-18 18:31 35.782197 -115.306273 174 17599ft 265kts
17-Jul-18 18:32 35.709859 -115.298211 174 19710ft 275kts
17-Jul-18 18:33 35.639136 -115.349699 227 19966ft 350kts
17-Jul-18 18:34 35.567661 -115.443953 228 20964ft 390kts
17-Jul-18 18:35 35.494382 -115.543439 229 22816ft 398kts
17-Jul-18 18:36 35.419345 -115.645153 229 23976ft 418kts
17-Jul-18 18:37 35.343696 -115.747388 228 23981ft 455kts
17-Jul-18 18:38 35.256612 -115.864683 228 23978ft 484kts
17-Jul-18 18:39 35.165635 -115.986789 228 23972ft 484kts
17-Jul-18 18:40 35.081044 -116.099941 228 23970ft 472kts
17-Jul-18 18:41 34.996285 -116.213209 226 23897ft 416kts
17-Jul-18 18:42 34.921849 -116.311943 225 22153ft 395kts
17-Jul-18 18:43 34.853836 -116.402019 226 20443ft 391kts
17-Jul-18 18:44 34.782431 -116.496403 226 18815ft 383kts
17-Jul-18 18:45 34.717154 -116.582463 226 17348ft 377kts
17-Jul-18 18:46 34.662296 -116.663543 232 16917ft 346kts
17-Jul-18 18:47 34.611654 -116.747869 232 15495ft 339kts
17-Jul-18 18:48 34.572056 -116.830719 240 14075ft 333kts
17-Jul-18 18:49 34.523307 -116.920381 229 12533ft 323kts
17-Jul-18 18:50 34.468254 -116.998678 228 11138ft 312kts
17-Jul-18 18:51 34.400381 -117.054078 206 9971ft 291kts
17-Jul-18 18:52 34.335963 -117.095414 205 9976ft 246kts
17-Jul-18 18:53 34.274797 -117.129229 184 9899ft 243kts
17-Jul-18 18:54 34.208586 -117.134987 181 8997ft 222kts
17-Jul-18 18:55 34.148426 -117.140000 181 8990ft 218kts
17-Jul-18 18:56 34.086222 -117.144754 181 7378ft 236kts
17-Jul-18 18:57 34.023821 -117.153172 218 5441ft 240kts
17-Jul-18 18:58 34.003867 -117.223075 261 3991ft 214kts
17-Jul-18 18:59 34.016145 -117.281303 291 3991ft 171kts
17-Jul-18 19:00 34.037493 -117.333537 293 3628ft 181kts
17-Jul-18 19:01 34.056413 -117.386499 268 3601ft 167kts
17-Jul-18 19:02 34.056896 -117.433924 266 3377ft 177kts
17-Jul-18 19:03 34.055724 -117.499354 264 2000ft 152kts
17-Jul-18 19:04 34.057137 -117.540291 266 1500ft 120kts
17-Jul-18 19:05 34.056887 -117.574450 269 1103ft 125kts
17-Jul-18 19:06 34.056819 -117.599029 288 952ft 0kts
17-Jul-18 19:07 34.057056 -117.599550 313 952ft 0kts
17-Jul-18 19:08 34.058200 -117.599714 1 952ft 9kts
17-Jul-18 19:09 34.059979 -117.599356 18 952ft 0kts
17-Jul-18 19:10 34.059982 -117.599359 19 950ft 1kts
17-Jul-18 19:11 34.059979 -117.599355 16 947ft 0kts
17-Jul-18 19:12 34.059979 -117.599355 16 947ft 0kts
17-Jul-18 19:13 34.059979 -117.599355 15 947ft 0kts
17-Jul-18 19:14 34.059979 -117.599355 15 947ft 0kts
17-Jul-18 19:15 34.059979 -117.599355 14 947ft 0kts

Navigation Log

Ident Type
Flight plan parsing failed, navigation log unavailable